createdAt,value
2023-01-31T00:01:42.395Z,30.60
2023-01-31T00:04:12.557Z,30.13
2023-01-31T00:06:45.409Z,34.40
2023-01-31T00:09:14.091Z,34.80
2023-01-31T00:11:42.285Z,30.70
2023-01-31T00:14:10.528Z,28.83
2023-01-31T00:16:39.286Z,39.80
2023-01-31T00:19:07.974Z,30.23
2023-01-31T00:21:36.508Z,26.15
2023-01-31T00:24:05.012Z,30.13
2023-01-31T00:26:35.208Z,37.05
2023-01-31T00:29:05.619Z,86.43
2023-01-31T00:31:36.047Z,98.88
2023-01-31T00:34:04.453Z,131.82
2023-01-31T00:36:35.163Z,136.23
2023-01-31T00:39:05.342Z,159.65
2023-01-31T00:41:34.621Z,122.15
2023-01-31T00:44:02.898Z,119.63
2023-01-31T00:46:31.827Z,129.55
2023-01-31T00:49:00.290Z,114.78
2023-01-31T00:51:40.610Z,115.43
2023-01-31T00:54:08.817Z,116.45
2023-01-31T00:56:37.215Z,99.32
2023-01-31T00:59:06.330Z,104.90
2023-01-31T01:01:35.956Z,102.47
2023-01-31T01:04:04.701Z,72.95
2023-01-31T01:06:35.375Z,92.40
2023-01-31T01:09:04.369Z,74.35
2023-01-31T01:11:35.990Z,71.30
2023-01-31T01:14:04.682Z,80.30
2023-01-31T01:16:38.818Z,78.78
2023-01-31T01:19:10.999Z,73.75
2023-01-31T01:24:09.524Z,70.80
2023-01-31T01:26:40.498Z,81.85
2023-01-31T01:29:09.047Z,83.95
2023-01-31T01:31:39.223Z,128.20
2023-01-31T01:34:12.751Z,131.15
2023-01-31T01:36:41.554Z,140.77
2023-01-31T01:39:12.001Z,119.03
2023-01-31T01:41:43.273Z,143.98
2023-01-31T01:44:48.359Z,183.77
2023-01-31T01:47:54.693Z,148.60
2023-01-31T01:50:34.464Z,157.57
2023-01-31T01:53:23.774Z,151.63
2023-01-31T01:55:55.847Z,143.98
2023-01-31T02:00:55.909Z,130.95
2023-01-31T02:03:24.320Z,115.72
2023-01-31T02:05:55.911Z,106.53
2023-01-31T02:08:27.724Z,106.78
2023-01-31T02:11:11.873Z,111.90
2023-01-31T02:13:42.336Z,101.93
2023-01-31T02:16:16.464Z,112.85
2023-01-31T02:18:46.283Z,115.07
2023-01-31T02:21:50.156Z,116.70
2023-01-31T02:24:59.373Z,111.07
2023-01-31T02:27:30.735Z,105.00
2023-01-31T02:30:21.586Z,101.20
2023-01-31T02:32:55.989Z,114.55
2023-01-31T02:35:29.442Z,113.05
2023-01-31T02:38:16.391Z,109.10
2023-01-31T02:41:03.269Z,112.28
2023-01-31T02:43:47.811Z,114.22
2023-01-31T02:46:18.695Z,129.23
2023-01-31T02:49:19.427Z,111.47
2023-01-31T02:51:52.405Z,114.35
2023-01-31T02:54:27.441Z,112.57
2023-01-31T02:56:55.999Z,117.38
2023-01-31T02:59:26.457Z,127.25
2023-01-31T03:04:32.181Z,124.63
2023-01-31T03:07:08.702Z,119.65
2023-01-31T03:09:54.461Z,118.53
2023-01-31T03:12:44.820Z,105.00
2023-01-31T03:15:38.299Z,109.95
2023-01-31T03:18:13.984Z,102.78
2023-01-31T03:20:50.710Z,85.72
2023-01-31T03:23:25.112Z,103.38
2023-01-31T03:25:53.873Z,92.55
2023-01-31T03:28:28.464Z,93.40
2023-01-31T03:31:23.895Z,86.57
2023-01-31T03:34:04.802Z,70.93
2023-01-31T03:36:57.971Z,65.97
2023-01-31T03:39:47.576Z,59.05
2023-01-31T03:42:25.071Z,57.13
2023-01-31T03:45:23.760Z,50.08
2023-01-31T03:47:54.774Z,56.45
2023-01-31T03:50:34.173Z,54.70
2023-01-31T03:53:12.141Z,54.95
2023-01-31T03:55:43.576Z,49.72
2023-01-31T03:58:14.417Z,51.35
2023-01-31T04:00:44.923Z,47.78
2023-01-31T04:03:30.433Z,51.50
2023-01-31T04:06:00.145Z,40.88
2023-01-31T04:08:28.766Z,51.55
2023-01-31T04:11:06.359Z,47.05
2023-01-31T04:13:34.913Z,51.38
2023-01-31T04:16:03.884Z,52.20
2023-01-31T04:18:32.174Z,58.20
2023-01-31T04:21:00.257Z,49.97
2023-01-31T04:23:28.656Z,52.97
2023-01-31T04:25:56.944Z,47.47
2023-01-31T04:28:25.169Z,46.88
2023-01-31T04:30:54.826Z,56.78
2023-01-31T04:33:23.953Z,46.53
2023-01-31T04:35:52.901Z,50.25
2023-01-31T04:38:21.281Z,43.33
2023-01-31T04:40:49.569Z,45.60
2023-01-31T04:43:17.923Z,43.60
2023-01-31T04:45:46.196Z,40.22
2023-01-31T04:48:14.442Z,44.53
2023-01-31T04:50:42.564Z,46.05
2023-01-31T04:53:10.883Z,41.20
2023-01-31T04:55:39.207Z,50.60
2023-01-31T04:58:07.624Z,37.63
2023-01-31T05:00:36.498Z,38.00
2023-01-31T05:03:04.902Z,45.78
2023-01-31T05:05:36.315Z,40.15
2023-01-31T05:08:05.711Z,38.75
2023-01-31T05:10:36.387Z,38.95
2023-01-31T05:13:05.016Z,48.17
2023-01-31T05:15:33.421Z,40.30
2023-01-31T05:18:01.733Z,47.20
2023-01-31T05:20:36.101Z,36.45
2023-01-31T05:23:04.956Z,35.42
2023-01-31T05:25:33.761Z,32.70
2023-01-31T05:28:02.383Z,35.10
2023-01-31T05:30:31.338Z,40.58
2023-01-31T05:32:59.811Z,33.53
2023-01-31T05:35:28.297Z,42.10
2023-01-31T05:37:56.483Z,42.70
2023-01-31T05:40:24.753Z,45.20
2023-01-31T05:42:57.494Z,43.05
2023-01-31T05:45:26.022Z,49.10
2023-01-31T05:48:10.359Z,55.75
2023-01-31T05:50:38.675Z,42.08
2023-01-31T05:53:12.730Z,38.55
2023-01-31T05:55:40.948Z,47.78
2023-01-31T05:58:09.159Z,47.00
2023-01-31T06:00:37.360Z,44.50
2023-01-31T06:03:05.706Z,41.65
2023-01-31T06:05:33.975Z,44.15
2023-01-31T06:08:02.516Z,44.83
2023-01-31T06:10:30.932Z,55.42
2023-01-31T06:12:59.850Z,57.60
2023-01-31T06:15:28.157Z,45.85
2023-01-31T06:17:56.452Z,45.42
2023-01-31T06:20:24.845Z,49.17
2023-01-31T06:22:53.141Z,52.42
2023-01-31T06:25:21.655Z,62.33
2023-01-31T06:27:50.185Z,43.30
2023-01-31T06:30:18.392Z,48.88
2023-01-31T06:32:46.650Z,47.50
2023-01-31T06:35:15.297Z,50.05
2023-01-31T06:37:43.527Z,55.08
2023-01-31T06:40:12.390Z,58.55
2023-01-31T06:42:41.003Z,59.53
2023-01-31T06:45:10.246Z,48.42
2023-01-31T06:47:38.586Z,51.05
2023-01-31T06:50:07.268Z,60.80
2023-01-31T06:52:35.942Z,70.68
2023-01-31T06:55:04.405Z,60.17
2023-01-31T06:57:32.949Z,61.17
2023-01-31T07:00:01.300Z,58.97
2023-01-31T07:02:29.853Z,61.53
2023-01-31T07:04:58.557Z,58.50
2023-01-31T07:07:26.852Z,72.38
2023-01-31T07:09:55.240Z,76.10
2023-01-31T07:12:23.527Z,75.43
2023-01-31T07:14:52.075Z,94.22
2023-01-31T07:17:20.618Z,75.63
2023-01-31T07:19:48.891Z,84.40
2023-01-31T07:22:17.239Z,88.18
2023-01-31T07:24:45.580Z,92.97
2023-01-31T07:27:14.460Z,90.63
2023-01-31T07:29:42.773Z,69.30
2023-01-31T07:32:11.715Z,75.72
2023-01-31T07:34:40.302Z,72.00
2023-01-31T07:37:08.518Z,67.10
2023-01-31T07:39:36.629Z,86.80
2023-01-31T07:42:05.130Z,74.25
2023-01-31T07:44:33.364Z,74.75
2023-01-31T07:47:01.672Z,75.55
2023-01-31T07:49:30.045Z,88.35
2023-01-31T07:51:58.143Z,91.68
2023-01-31T07:54:26.479Z,87.32
2023-01-31T07:56:54.653Z,79.95
2023-01-31T07:59:23.019Z,79.88
2023-01-31T08:01:51.167Z,78.72
2023-01-31T08:04:22.095Z,67.95
2023-01-31T08:06:54.252Z,72.20
2023-01-31T08:09:23.515Z,70.53
2023-01-31T08:11:51.877Z,78.18
2023-01-31T08:14:20.076Z,59.22
2023-01-31T08:16:48.426Z,55.08
2023-01-31T08:19:16.760Z,73.80
2023-01-31T08:21:45.095Z,59.47
2023-01-31T08:24:13.430Z,62.08
2023-01-31T08:26:44.434Z,60.42
2023-01-31T08:29:12.807Z,72.45
2023-01-31T08:31:42.116Z,61.85
2023-01-31T08:34:10.852Z,66.18
2023-01-31T08:36:39.312Z,54.75
2023-01-31T08:39:07.601Z,58.60
2023-01-31T08:41:37.321Z,56.78
2023-01-31T08:44:06.979Z,64.75
2023-01-31T08:46:37.537Z,53.40
2023-01-31T08:49:07.668Z,42.78
2023-01-31T08:51:36.035Z,48.63
2023-01-31T08:54:04.565Z,62.17
2023-01-31T08:56:32.865Z,62.47
2023-01-31T08:59:01.148Z,58.90
2023-01-31T09:01:29.407Z,43.35
2023-01-31T09:03:57.695Z,54.90
2023-01-31T09:06:27.255Z,48.15
2023-01-31T09:08:59.196Z,48.25
2023-01-31T09:11:31.570Z,48.13
2023-01-31T09:14:00.149Z,56.78
2023-01-31T09:16:29.043Z,53.08
2023-01-31T09:19:02.067Z,45.90
2023-01-31T09:21:31.110Z,48.75
2023-01-31T09:24:01.229Z,39.80
2023-01-31T09:26:30.035Z,42.85
2023-01-31T09:28:59.385Z,44.25
2023-01-31T09:31:27.911Z,50.58
2023-01-31T09:33:56.158Z,47.92
2023-01-31T09:36:24.958Z,57.97
2023-01-31T09:38:57.368Z,51.75
2023-01-31T09:41:37.119Z,51.30
2023-01-31T09:44:11.274Z,54.40
2023-01-31T09:46:44.759Z,46.60
2023-01-31T09:49:29.530Z,42.50
2023-01-31T09:52:03.387Z,39.25
2023-01-31T09:54:40.695Z,44.35
2023-01-31T09:57:47.037Z,49.42
2023-01-31T10:00:44.606Z,66.25
2023-01-31T10:03:41.180Z,53.42
2023-01-31T10:06:19.591Z,55.92
2023-01-31T10:09:17.693Z,52.83
2023-01-31T10:11:57.465Z,56.35
2023-01-31T10:14:35.121Z,52.50
2023-01-31T10:17:34.195Z,40.25
2023-01-31T10:20:19.434Z,62.95
2023-01-31T10:22:57.965Z,65.10
2023-01-31T10:25:28.135Z,48.78
2023-01-31T10:28:05.617Z,46.85
2023-01-31T10:30:49.088Z,48.25
2023-01-31T10:33:47.065Z,47.22
2023-01-31T10:36:34.634Z,30.58
2023-01-31T10:39:17.768Z,50.67
2023-01-31T10:42:04.128Z,46.30
2023-01-31T10:44:44.518Z,38.80
2023-01-31T10:47:15.622Z,35.10
2023-01-31T10:49:47.622Z,35.00
2023-01-31T10:55:16.178Z,47.45
2023-01-31T10:57:44.677Z,55.75
2023-01-31T11:00:24.213Z,46.63
2023-01-31T11:02:52.891Z,49.42
2023-01-31T11:05:25.137Z,54.50
2023-01-31T11:07:53.676Z,44.85
2023-01-31T11:10:25.954Z,52.63
2023-01-31T11:13:02.556Z,44.10
2023-01-31T11:15:37.268Z,49.15
2023-01-31T11:18:06.682Z,36.97
2023-01-31T11:20:47.620Z,56.78
2023-01-31T11:23:23.262Z,44.88
2023-01-31T11:25:53.569Z,42.97
2023-01-31T11:28:38.872Z,56.65
2023-01-31T11:31:24.717Z,29.92
2023-01-31T11:34:04.199Z,37.92
2023-01-31T11:36:34.722Z,39.22
2023-01-31T11:39:33.453Z,39.22
2023-01-31T11:42:13.256Z,40.25
2023-01-31T11:45:01.319Z,34.40
2023-01-31T11:47:46.227Z,31.42
2023-01-31T11:50:39.268Z,36.45
2023-01-31T11:53:50.943Z,33.10
2023-01-31T11:56:26.562Z,39.67
2023-01-31T11:59:05.930Z,33.38
2023-01-31T12:01:36.684Z,42.88
2023-01-31T12:04:06.497Z,33.22
2023-01-31T12:06:37.120Z,30.00
2023-01-31T12:09:33.054Z,29.77
2023-01-31T12:12:03.246Z,36.38
2023-01-31T12:14:42.139Z,28.40
2023-01-31T12:17:16.119Z,33.20
2023-01-31T12:20:21.375Z,27.77
2023-01-31T12:23:34.363Z,43.67
2023-01-31T12:26:21.221Z,55.38
2023-01-31T12:29:11.949Z,37.72
2023-01-31T12:32:07.852Z,52.70
2023-01-31T12:34:50.452Z,51.15
2023-01-31T12:38:02.584Z,44.75
2023-01-31T12:41:00.588Z,43.83
2023-01-31T12:43:31.972Z,52.25
2023-01-31T12:46:33.636Z,49.28
2023-01-31T12:49:17.390Z,37.60
2023-01-31T12:52:04.061Z,34.60
2023-01-31T12:54:41.710Z,57.15
2023-01-31T12:57:39.048Z,33.28
2023-01-31T13:00:48.183Z,37.13
2023-01-31T13:03:34.384Z,55.72
2023-01-31T13:06:07.477Z,54.15
2023-01-31T13:08:39.844Z,46.90
2023-01-31T13:11:18.780Z,51.33
2023-01-31T13:13:52.075Z,74.72
2023-01-31T13:16:22.058Z,34.08
2023-01-31T13:18:53.550Z,32.75
2023-01-31T13:21:25.659Z,37.28
2023-01-31T13:24:10.440Z,45.13
2023-01-31T13:26:50.871Z,40.20
2023-01-31T13:29:45.080Z,40.45
2023-01-31T13:32:22.522Z,41.35
2023-01-31T13:35:13.280Z,26.95
2023-01-31T13:37:44.126Z,71.47
2023-01-31T13:40:23.313Z,53.47
2023-01-31T13:42:52.244Z,51.85
2023-01-31T13:45:42.142Z,40.63
2023-01-31T13:48:27.142Z,24.98
2023-01-31T13:51:25.629Z,35.63
2023-01-31T13:54:33.155Z,32.60
2023-01-31T13:57:03.248Z,45.25
2023-01-31T13:59:38.024Z,25.80
2023-01-31T14:02:17.453Z,51.22
2023-01-31T14:04:48.687Z,40.67
2023-01-31T14:07:19.761Z,31.92
2023-01-31T14:09:50.886Z,28.53
2023-01-31T14:12:19.269Z,41.10
2023-01-31T14:14:52.674Z,34.13
2023-01-31T14:17:30.087Z,29.38
2023-01-31T14:20:06.327Z,34.35
2023-01-31T14:22:40.794Z,30.40
2023-01-31T14:25:15.525Z,26.55
2023-01-31T14:27:56.815Z,26.17
2023-01-31T14:30:27.905Z,30.73
2023-01-31T14:33:14.393Z,20.30
2023-01-31T14:36:01.748Z,34.72
2023-01-31T14:38:45.308Z,52.50
2023-01-31T14:41:41.263Z,36.10
2023-01-31T14:44:29.396Z,31.75
2023-01-31T14:47:28.235Z,54.53
2023-01-31T14:49:59.530Z,29.35
2023-01-31T14:53:03.307Z,23.83
2023-01-31T14:55:55.781Z,40.45
2023-01-31T14:58:29.993Z,40.30
2023-01-31T15:01:01.311Z,44.90
2023-01-31T15:03:49.607Z,48.58
2023-01-31T15:06:30.464Z,45.40
2023-01-31T15:09:17.206Z,33.60
2023-01-31T15:11:47.074Z,28.27
2023-01-31T15:14:35.174Z,22.83
2023-01-31T15:17:34.482Z,40.22
2023-01-31T15:20:17.588Z,20.08
2023-01-31T15:22:47.273Z,56.30
2023-01-31T15:25:35.588Z,34.90
2023-01-31T15:28:04.930Z,76.53
2023-01-31T15:30:36.027Z,29.85
2023-01-31T15:33:08.269Z,26.77
2023-01-31T15:35:48.747Z,27.25
2023-01-31T15:39:03.548Z,40.40
2023-01-31T15:41:40.755Z,20.27
2023-01-31T15:44:20.103Z,26.65
2023-01-31T15:46:58.323Z,33.78
2023-01-31T15:49:40.471Z,36.80
2023-01-31T15:52:09.112Z,27.77
2023-01-31T15:54:38.563Z,46.78
2023-01-31T15:57:16.003Z,33.45
2023-01-31T15:59:47.753Z,28.95
2023-01-31T16:04:57.439Z,85.95
2023-01-31T16:07:28.800Z,90.57
2023-01-31T16:09:59.780Z,118.95
2023-01-31T16:12:30.420Z,77.13
2023-01-31T16:15:05.538Z,25.27
2023-01-31T16:17:34.605Z,122.45
2023-01-31T16:20:03.212Z,74.85
2023-01-31T16:22:32.759Z,96.88
2023-01-31T16:25:02.941Z,60.38
2023-01-31T16:27:43.925Z,67.68
2023-01-31T16:30:19.286Z,50.58
2023-01-31T16:32:47.816Z,88.03
2023-01-31T16:35:23.952Z,45.40
2023-01-31T16:38:16.484Z,31.70
2023-01-31T16:40:53.703Z,32.42
2023-01-31T16:43:28.016Z,47.45
2023-01-31T16:45:58.608Z,116.65
2023-01-31T16:48:34.818Z,38.15
2023-01-31T16:51:23.170Z,77.22
2023-01-31T16:54:17.843Z,94.25
2023-01-31T16:56:48.063Z,69.95
2023-01-31T16:59:34.342Z,49.45
2023-01-31T17:02:15.960Z,42.22
2023-01-31T17:04:44.863Z,107.00
2023-01-31T17:07:30.285Z,68.75
2023-01-31T17:10:01.989Z,55.78
2023-01-31T17:12:33.166Z,51.55
2023-01-31T17:15:03.632Z,28.42
2023-01-31T17:17:36.173Z,36.80
2023-01-31T17:20:05.651Z,67.22
2023-01-31T17:22:33.948Z,89.07
2023-01-31T17:25:02.487Z,47.55
2023-01-31T17:27:30.648Z,51.25
2023-01-31T17:29:59.016Z,66.78
2023-01-31T17:32:27.410Z,51.70
2023-01-31T17:34:55.514Z,44.53
2023-01-31T17:37:31.626Z,56.92
2023-01-31T17:40:00.583Z,48.83
2023-01-31T17:42:29.013Z,35.53
2023-01-31T17:44:57.309Z,73.35
2023-01-31T17:47:25.695Z,65.05
2023-01-31T17:49:54.373Z,31.77
2023-01-31T17:52:22.673Z,66.45
2023-01-31T17:54:51.069Z,63.17
2023-01-31T17:57:19.536Z,82.30
2023-01-31T17:59:47.934Z,83.80
2023-01-31T18:02:16.259Z,47.08
2023-01-31T18:04:44.642Z,64.95
2023-01-31T18:07:16.610Z,31.13
2023-01-31T18:09:45.116Z,47.10
2023-01-31T18:12:13.476Z,46.38
2023-01-31T18:14:41.896Z,35.97
2023-01-31T18:17:10.194Z,36.58
2023-01-31T18:19:38.619Z,37.90
2023-01-31T18:22:06.755Z,39.78
2023-01-31T18:24:34.950Z,22.23
2023-01-31T18:27:03.344Z,64.78
2023-01-31T18:29:31.676Z,35.35
2023-01-31T18:32:00.016Z,45.83
2023-01-31T18:34:28.695Z,62.35
2023-01-31T18:36:56.928Z,46.90
2023-01-31T18:39:25.328Z,47.60
2023-01-31T18:41:53.838Z,52.78
2023-01-31T18:44:22.456Z,62.10
2023-01-31T18:46:50.743Z,60.38
2023-01-31T18:49:19.003Z,81.82
2023-01-31T18:51:47.370Z,75.20
2023-01-31T18:54:15.687Z,83.70
2023-01-31T18:56:44.090Z,57.22
2023-01-31T18:59:15.577Z,76.28
2023-01-31T19:01:44.168Z,86.72
2023-01-31T19:04:12.675Z,54.72
2023-01-31T19:06:41.113Z,65.30
2023-01-31T19:09:10.236Z,55.38
2023-01-31T19:11:39.473Z,55.00
2023-01-31T19:14:08.923Z,43.95
2023-01-31T19:16:39.389Z,55.25
2023-01-31T19:19:09.378Z,56.63
2023-01-31T19:21:38.773Z,54.38
2023-01-31T19:24:10.897Z,51.58
2023-01-31T19:26:39.369Z,52.80
2023-01-31T19:29:09.719Z,39.83
2023-01-31T19:31:38.296Z,53.88
2023-01-31T19:34:07.310Z,62.20
2023-01-31T19:36:40.763Z,58.95
2023-01-31T19:39:12.240Z,48.50
2023-01-31T19:41:40.601Z,63.05
2023-01-31T19:44:09.162Z,47.35
2023-01-31T19:46:38.378Z,54.45
2023-01-31T19:49:06.708Z,68.28
2023-01-31T19:51:34.899Z,65.63
2023-01-31T19:54:03.288Z,52.15
2023-01-31T19:56:32.344Z,43.47
2023-01-31T19:59:01.025Z,47.17
2023-01-31T20:01:29.352Z,63.55
2023-01-31T20:03:57.970Z,70.05
2023-01-31T20:06:29.306Z,77.30
2023-01-31T20:09:00.247Z,64.43
2023-01-31T20:11:29.987Z,52.35
2023-01-31T20:13:58.702Z,39.97
2023-01-31T20:16:27.512Z,43.60
2023-01-31T20:18:57.802Z,50.60
2023-01-31T20:21:26.288Z,41.28
2023-01-31T20:23:54.663Z,41.38
2023-01-31T20:26:23.025Z,42.92
2023-01-31T20:28:51.545Z,44.70
2023-01-31T20:31:19.859Z,31.80
2023-01-31T20:33:48.122Z,43.47
2023-01-31T20:36:16.336Z,44.03
2023-01-31T20:38:44.563Z,102.75
2023-01-31T20:41:12.841Z,59.90
2023-01-31T20:43:41.165Z,55.38
2023-01-31T20:46:14.927Z,59.15
2023-01-31T20:48:43.574Z,83.03
2023-01-31T20:51:11.934Z,109.00
2023-01-31T20:53:40.514Z,103.90
2023-01-31T20:56:10.898Z,85.60
2023-01-31T20:58:42.460Z,93.65
2023-01-31T21:01:12.001Z,65.20
2023-01-31T21:03:40.571Z,120.20
2023-01-31T21:06:09.581Z,124.00
2023-01-31T21:08:38.140Z,85.40
2023-01-31T21:11:12.613Z,127.93
2023-01-31T21:13:41.049Z,127.57
2023-01-31T21:16:11.347Z,82.95
2023-01-31T21:18:40.683Z,64.05
2023-01-31T21:21:20.399Z,76.43
2023-01-31T21:23:48.704Z,92.43
2023-01-31T21:26:17.216Z,69.10
2023-01-31T21:28:45.762Z,82.45
2023-01-31T21:31:17.162Z,82.38
2023-01-31T21:33:50.496Z,84.10
2023-01-31T21:36:21.694Z,105.13
2023-01-31T21:38:50.475Z,182.43
2023-01-31T21:41:19.483Z,185.98
2023-01-31T21:43:47.937Z,135.07
2023-01-31T21:46:16.677Z,178.73
2023-01-31T21:48:46.161Z,200.68
2023-01-31T21:51:16.462Z,185.25
2023-01-31T21:53:45.455Z,231.45
2023-01-31T21:56:16.629Z,224.75
2023-01-31T21:58:45.681Z,250.85
2023-01-31T22:01:15.594Z,206.25
2023-01-31T22:03:44.888Z,200.73
2023-01-31T22:06:15.289Z,178.40
2023-01-31T22:08:50.186Z,176.52
2023-01-31T22:11:18.750Z,142.60
2023-01-31T22:13:51.643Z,140.57
2023-01-31T22:16:22.430Z,185.02
2023-01-31T22:18:51.247Z,202.10
2023-01-31T22:21:23.946Z,201.02
2023-01-31T22:23:54.517Z,256.83
2023-01-31T22:26:27.994Z,239.65
2023-01-31T22:28:58.546Z,196.15
2023-01-31T22:31:27.531Z,211.90
2023-01-31T22:33:56.049Z,289.45
2023-01-31T22:36:24.348Z,243.98
2023-01-31T22:38:53.736Z,238.85
2023-01-31T22:41:22.533Z,258.13
2023-01-31T22:43:52.721Z,243.15
2023-01-31T22:46:27.774Z,274.83
2023-01-31T22:48:57.181Z,258.42
2023-01-31T22:51:29.801Z,235.55
2023-01-31T22:53:59.389Z,210.43
2023-01-31T22:56:33.625Z,234.00
2023-01-31T22:59:04.315Z,245.98
2023-01-31T23:01:36.083Z,186.48
2023-01-31T23:04:07.037Z,233.02
2023-01-31T23:06:35.750Z,239.70
2023-01-31T23:09:04.784Z,247.95
2023-01-31T23:11:32.978Z,275.58
2023-01-31T23:14:01.401Z,238.50
2023-01-31T23:16:29.506Z,261.40
2023-01-31T23:18:57.782Z,200.40
2023-01-31T23:21:26.007Z,214.75
2023-01-31T23:23:54.233Z,217.38
2023-01-31T23:26:23.912Z,275.23
2023-01-31T23:28:52.113Z,226.60
2023-01-31T23:31:21.763Z,244.23
2023-01-31T23:33:51.511Z,308.10
2023-01-31T23:36:19.768Z,292.35
2023-01-31T23:38:47.961Z,212.70
2023-01-31T23:41:16.202Z,329.15
2023-01-31T23:43:47.416Z,387.58
2023-01-31T23:46:15.726Z,343.97
2023-01-31T23:48:43.935Z,305.50
2023-01-31T23:51:12.351Z,354.83
2023-01-31T23:53:40.617Z,325.98
2023-01-31T23:56:08.784Z,398.27
2023-01-31T23:58:37.169Z,359.42
